< < Back
Terminal Aerodrome Forecast


Current Version              Previous Versions:   1  2  3  4  5  6  7  8  9  

Terminal Aerodrome Forecast

764
FTUS42 KFFC 031120
TAFAHN
TAF
KAHN 031120Z 0312/0412 VRB03KT P6SM SCT060 BKN200
     FM031500 VRB03KT P6SM SCT030 SCT060 BKN180
     FM031900 30005KT P6SM SCT050 BKN150
     FM040000 00000KT P6SM SCT060 BKN150=



Latest METAR

017
SAUS70 KWBC 032000
MTRAHN
METAR KAHN 031951Z 10005KT 10SM FEW033 32/22 A2995 RMK AO2 SLP134
T03220217


USA.gov is the U.S. government's official web portal to all federal, state and local government web resources and services.